createdAt,value
2022-08-02T00:00:35.434Z,75.39
2022-08-02T00:03:02.832Z,75.72
2022-08-02T00:05:30.001Z,75.49
2022-08-02T00:07:57.525Z,75.65
2022-08-02T00:10:24.548Z,75.37
2022-08-02T00:12:51.877Z,75.83
2022-08-02T00:15:20.547Z,75.50
2022-08-02T00:17:48.807Z,75.63
2022-08-02T00:20:16.195Z,75.82
2022-08-02T00:22:43.852Z,76.05
2022-08-02T00:25:11.278Z,76.02
2022-08-02T00:27:38.500Z,76.13
2022-08-02T00:30:06.412Z,76.43
2022-08-02T00:32:33.581Z,76.68
2022-08-02T00:35:00.912Z,76.84
2022-08-02T00:37:29.156Z,77.50
2022-08-02T00:39:57.694Z,77.60
2022-08-02T00:42:24.895Z,78.15
2022-08-02T00:44:52.055Z,77.54
2022-08-02T00:47:20.007Z,78.00
2022-08-02T00:49:47.792Z,78.58
2022-08-02T00:52:15.193Z,79.47
2022-08-02T00:54:42.601Z,79.87
2022-08-02T00:57:09.810Z,80.49
2022-08-02T00:59:36.973Z,80.85
2022-08-02T01:02:04.742Z,80.62
2022-08-02T01:04:32.473Z,79.51
2022-08-02T01:07:12.627Z,78.51
2022-08-02T01:09:42.829Z,76.73
2022-08-02T01:12:11.259Z,75.89
2022-08-02T01:14:41.114Z,75.86
2022-08-02T01:17:33.503Z,76.38
2022-08-02T01:20:03.756Z,75.83
2022-08-02T01:23:01.002Z,75.85
2022-08-02T01:25:53.234Z,75.82
2022-08-02T01:28:23.538Z,76.15
2022-08-02T01:30:58.482Z,75.76
2022-08-02T01:33:31.702Z,75.78
2022-08-02T01:35:59.727Z,76.57
2022-08-02T01:38:35.799Z,77.43
2022-08-02T01:41:04.931Z,78.37
2022-08-02T01:43:34.205Z,79.73
2022-08-02T01:46:02.926Z,80.32
2022-08-02T01:48:32.160Z,80.62
2022-08-02T01:51:01.459Z,81.32
2022-08-02T01:53:30.441Z,81.44
2022-08-02T01:56:00.266Z,81.80
2022-08-02T01:58:31.746Z,82.30
2022-08-02T02:01:00.382Z,82.50
2022-08-02T02:03:29.295Z,82.74
2022-08-02T02:05:58.282Z,82.82
2022-08-02T02:08:31.331Z,82.86
2022-08-02T02:12:12.173Z,82.95
2022-08-02T02:13:50.415Z,82.60
2022-08-02T02:16:20.059Z,82.64
2022-08-02T02:18:49.094Z,82.68
2022-08-02T02:21:16.820Z,83.35
2022-08-02T02:23:44.155Z,83.65
2022-08-02T02:26:15.225Z,83.11
2022-08-02T02:28:47.659Z,83.25
2022-08-02T02:31:19.529Z,83.45
2022-08-02T02:34:10.841Z,83.98
2022-08-02T02:36:41.845Z,84.71
2022-08-02T02:39:13.739Z,85.19
2022-08-02T02:41:42.761Z,85.79
2022-08-02T02:44:13.878Z,85.31
2022-08-02T02:46:41.924Z,85.47
2022-08-02T02:49:11.906Z,85.65
2022-08-02T02:51:42.711Z,85.98
2022-08-02T02:54:29.836Z,85.62
2022-08-02T02:57:01.335Z,85.51
2022-08-02T02:59:29.706Z,85.71
2022-08-02T03:01:58.334Z,85.56
2022-08-02T03:04:55.976Z,84.93
2022-08-02T03:07:16.713Z,85.02
2022-08-02T03:09:44.561Z,85.47
2022-08-02T03:12:14.979Z,85.31
2022-08-02T03:14:49.419Z,86.30
2022-08-02T03:17:16.975Z,85.48
2022-08-02T03:19:45.447Z,85.79
2022-08-02T03:22:13.117Z,85.93
2022-08-02T03:24:40.679Z,83.69
2022-08-02T03:27:08.194Z,82.62
2022-08-02T03:29:35.462Z,80.35
2022-08-02T03:32:02.905Z,79.86
2022-08-02T03:34:30.335Z,79.99
2022-08-02T03:36:58.306Z,80.33
2022-08-02T03:39:26.878Z,80.79
2022-08-02T03:41:55.490Z,81.57
2022-08-02T03:44:23.739Z,82.95
2022-08-02T03:46:52.486Z,83.49
2022-08-02T03:49:24.305Z,84.05
2022-08-02T03:51:53.536Z,84.87
2022-08-02T03:54:22.571Z,85.09
2022-08-02T03:57:00.736Z,84.86
2022-08-02T03:59:27.964Z,84.31
2022-08-02T04:02:03.366Z,83.86
2022-08-02T04:04:31.211Z,82.74
2022-08-02T04:06:58.293Z,82.41
2022-08-02T04:09:27.487Z,81.37
2022-08-02T04:11:54.687Z,81.35
2022-08-02T04:14:22.606Z,81.47
2022-08-02T04:16:56.089Z,81.28
2022-08-02T04:19:59.056Z,80.31
2022-08-02T04:22:44.009Z,80.25
2022-08-02T04:25:17.055Z,79.96
2022-08-02T04:27:50.146Z,79.65
2022-08-02T04:30:34.371Z,79.31
2022-08-02T04:33:01.857Z,78.75
2022-08-02T04:35:29.505Z,77.11
2022-08-02T04:38:08.098Z,76.15
2022-08-02T04:40:38.499Z,77.07
2022-08-02T04:43:06.122Z,76.13
2022-08-02T04:45:33.678Z,75.25
2022-08-02T04:48:05.245Z,74.64
2022-08-02T04:50:34.315Z,73.82
2022-08-02T04:53:01.789Z,73.56
2022-08-02T04:55:30.103Z,73.37
2022-08-02T04:57:58.999Z,72.64
2022-08-02T05:00:28.280Z,72.67
2022-08-02T05:03:00.255Z,72.60
2022-08-02T05:05:27.724Z,72.21
2022-08-02T05:07:55.294Z,72.34
2022-08-02T05:10:23.218Z,71.90
2022-08-02T05:12:50.634Z,71.60
2022-08-02T05:15:18.727Z,71.55
2022-08-02T05:17:48.813Z,71.93
2022-08-02T05:20:17.966Z,71.62
2022-08-02T05:22:45.377Z,70.98
2022-08-02T05:25:13.615Z,70.90
2022-08-02T05:27:41.369Z,70.58
2022-08-02T05:30:09.593Z,70.51
2022-08-02T05:32:44.743Z,69.10
2022-08-02T05:35:12.048Z,68.99
2022-08-02T05:37:39.351Z,68.29
2022-08-02T05:40:10.796Z,68.08
2022-08-02T05:42:41.379Z,67.90
2022-08-02T05:45:08.999Z,67.62
2022-08-02T05:47:36.675Z,66.57
2022-08-02T05:50:06.132Z,66.92
2022-08-02T05:52:50.816Z,66.02
2022-08-02T05:55:31.657Z,67.14
2022-08-02T05:58:18.542Z,66.23
2022-08-02T06:00:48.297Z,64.83
2022-08-02T06:03:31.670Z,64.25
2022-08-02T06:06:16.287Z,64.93
2022-08-02T06:08:50.614Z,64.89
2022-08-02T06:11:22.378Z,64.83
2022-08-02T06:13:50.210Z,63.47
2022-08-02T06:16:32.374Z,63.12
2022-08-02T06:19:01.327Z,62.68
2022-08-02T06:22:30.701Z,62.26
2022-08-02T06:24:22.231Z,63.06
2022-08-02T06:26:52.820Z,62.17
2022-08-02T06:29:23.282Z,61.90
2022-08-02T06:31:53.323Z,62.13
2022-08-02T06:34:20.768Z,61.12
2022-08-02T06:36:58.682Z,61.39
2022-08-02T06:39:37.499Z,60.66
2022-08-02T06:42:16.081Z,60.46
2022-08-02T06:44:48.857Z,59.81
2022-08-02T06:47:18.309Z,59.76
2022-08-02T06:49:51.514Z,59.79
2022-08-02T06:52:28.990Z,60.08
2022-08-02T06:55:02.028Z,58.98
2022-08-02T06:57:31.979Z,59.33
2022-08-02T07:00:05.086Z,59.87
2022-08-02T07:02:33.129Z,58.96
2022-08-02T07:05:00.640Z,57.70
2022-08-02T07:07:28.482Z,58.06
2022-08-02T07:10:01.397Z,58.52
2022-08-02T07:12:34.314Z,58.39
2022-08-02T07:15:05.998Z,57.27
2022-08-02T07:17:34.839Z,56.87
2022-08-02T07:20:03.134Z,56.58
2022-08-02T07:22:31.258Z,56.49
2022-08-02T07:25:00.358Z,56.00
2022-08-02T07:27:28.058Z,55.14
2022-08-02T07:29:55.700Z,55.04
2022-08-02T07:32:26.121Z,55.32
2022-08-02T07:34:55.315Z,54.12
2022-08-02T07:37:52.929Z,53.19
2022-08-02T07:40:15.133Z,54.98
2022-08-02T07:42:52.429Z,54.65
2022-08-02T07:45:22.123Z,54.33
2022-08-02T07:47:50.330Z,54.34
2022-08-02T07:50:19.238Z,54.48
2022-08-02T07:52:47.457Z,54.22
2022-08-02T07:55:16.026Z,54.16
2022-08-02T07:57:46.521Z,52.98
2022-08-02T08:00:16.341Z,53.25
2022-08-02T08:02:44.723Z,53.35
2022-08-02T08:05:12.319Z,53.30
2022-08-02T08:07:40.151Z,52.64
2022-08-02T08:10:10.060Z,52.79
2022-08-02T08:12:38.698Z,52.28
2022-08-02T08:15:06.449Z,52.56
2022-08-02T08:17:35.133Z,52.43
2022-08-02T08:20:03.353Z,52.37
2022-08-02T08:22:30.697Z,52.75
2022-08-02T08:24:58.116Z,53.07
2022-08-02T08:27:26.123Z,53.12
2022-08-02T08:29:53.317Z,53.15
2022-08-02T08:32:21.112Z,53.34
2022-08-02T08:34:49.057Z,52.80
2022-08-02T08:37:17.968Z,51.59
2022-08-02T08:39:57.966Z,52.21
2022-08-02T08:42:31.259Z,51.75
2022-08-02T08:44:59.929Z,51.27
2022-08-02T08:47:39.947Z,49.78
2022-08-02T08:50:24.925Z,50.56
2022-08-02T08:53:05.315Z,50.50
2022-08-02T08:55:34.408Z,51.12
2022-08-02T08:58:02.639Z,49.84
2022-08-02T09:00:31.860Z,49.39
2022-08-02T09:03:02.254Z,49.63
2022-08-02T09:05:29.955Z,49.94
2022-08-02T09:07:57.268Z,50.36
2022-08-02T09:10:38.156Z,50.19
2022-08-02T09:13:38.342Z,50.66
2022-08-02T09:16:13.009Z,50.75
2022-08-02T09:18:45.604Z,49.74
2022-08-02T09:21:15.004Z,48.88
2022-08-02T09:23:51.790Z,48.55
2022-08-02T09:26:22.043Z,48.19
2022-08-02T09:28:52.616Z,48.10
2022-08-02T09:31:24.563Z,47.56
2022-08-02T09:33:57.552Z,47.51
2022-08-02T09:36:26.703Z,46.83
2022-08-02T09:39:01.933Z,46.86
2022-08-02T09:41:31.976Z,46.54
2022-08-02T09:44:04.639Z,46.40
2022-08-02T09:46:38.310Z,46.47
2022-08-02T09:49:09.677Z,45.81
2022-08-02T09:51:57.194Z,46.01
2022-08-02T09:54:27.790Z,45.65
2022-08-02T09:57:01.677Z,46.32
2022-08-02T09:59:30.079Z,45.89
2022-08-02T10:02:02.486Z,45.98
2022-08-02T10:04:34.096Z,44.97
2022-08-02T10:07:21.747Z,44.34
2022-08-02T10:09:51.133Z,44.82
2022-08-02T10:12:19.363Z,44.19
2022-08-02T10:14:49.806Z,43.09
2022-08-02T10:17:18.534Z,42.87
2022-08-02T10:20:00.209Z,43.06
2022-08-02T10:22:34.232Z,44.05
2022-08-02T10:25:04.731Z,44.60
2022-08-02T10:27:55.111Z,44.15
2022-08-02T10:30:23.717Z,44.29
2022-08-02T10:32:54.312Z,44.87
2022-08-02T10:35:25.640Z,43.98
2022-08-02T10:38:01.767Z,44.00
2022-08-02T10:40:49.014Z,44.42
2022-08-02T10:43:31.762Z,44.01
2022-08-02T10:46:44.444Z,43.20
2022-08-02T10:49:38.485Z,43.58
2022-08-02T10:52:08.230Z,43.22
2022-08-02T10:54:38.811Z,43.42
2022-08-02T10:57:38.662Z,43.83
2022-08-02T11:00:17.264Z,43.58
2022-08-02T11:02:53.579Z,43.85
2022-08-02T11:05:42.898Z,43.80
2022-08-02T11:08:21.682Z,44.14
2022-08-02T11:10:49.179Z,44.38
2022-08-02T11:13:22.796Z,44.24
2022-08-02T11:15:55.451Z,43.42
2022-08-02T11:18:24.794Z,43.21
2022-08-02T11:21:30.786Z,43.03
2022-08-02T11:24:26.310Z,41.96
2022-08-02T11:26:54.006Z,42.07
2022-08-02T11:29:21.664Z,42.07
2022-08-02T11:31:49.501Z,41.61
2022-08-02T11:34:36.898Z,41.18
2022-08-02T11:37:05.775Z,41.04
2022-08-02T11:39:33.136Z,41.17
2022-08-02T11:42:01.152Z,40.75
2022-08-02T11:44:30.036Z,42.14
2022-08-02T11:47:03.610Z,42.42
2022-08-02T11:49:31.253Z,43.25
2022-08-02T11:52:07.389Z,42.05
2022-08-02T11:54:40.527Z,42.93
2022-08-02T11:57:18.937Z,42.44
2022-08-02T11:59:52.213Z,42.42
2022-08-02T12:02:22.797Z,42.66
2022-08-02T12:04:59.102Z,42.49
2022-08-02T12:07:34.435Z,42.65
2022-08-02T12:10:11.914Z,42.41
2022-08-02T12:13:01.278Z,41.91
2022-08-02T12:15:37.446Z,42.19
2022-08-02T12:18:28.774Z,41.00
2022-08-02T12:20:56.949Z,40.63
2022-08-02T12:23:26.058Z,41.02
2022-08-02T12:26:04.940Z,40.61
2022-08-02T12:28:40.581Z,40.46
2022-08-02T12:31:18.255Z,40.31
2022-08-02T12:33:50.683Z,39.92
2022-08-02T12:36:18.944Z,40.00
2022-08-02T12:38:57.489Z,39.93
2022-08-02T12:41:30.219Z,40.00
2022-08-02T12:44:00.027Z,40.63
2022-08-02T12:46:27.515Z,40.61
2022-08-02T12:49:17.799Z,40.97
2022-08-02T12:51:56.548Z,40.78
2022-08-02T12:54:38.776Z,40.89
2022-08-02T12:57:12.861Z,41.12
2022-08-02T12:59:42.679Z,41.61
2022-08-02T13:02:12.706Z,41.15
2022-08-02T13:04:41.376Z,42.47
2022-08-02T13:07:09.546Z,41.65
2022-08-02T13:09:42.355Z,41.95
2022-08-02T13:12:09.973Z,41.14
2022-08-02T13:14:41.027Z,41.29
2022-08-02T13:17:10.543Z,41.56
2022-08-02T13:19:38.732Z,42.01
2022-08-02T13:22:08.406Z,41.62
2022-08-02T13:24:56.273Z,40.63
2022-08-02T13:27:26.387Z,41.24
2022-08-02T13:29:55.492Z,41.07
2022-08-02T13:32:23.873Z,41.18
2022-08-02T13:34:52.389Z,40.52
2022-08-02T13:37:19.841Z,40.34
2022-08-02T13:40:11.882Z,40.94
2022-08-02T13:42:35.944Z,41.62
2022-08-02T13:45:12.910Z,40.42
2022-08-02T13:48:03.279Z,40.10
2022-08-02T13:50:32.200Z,39.22
2022-08-02T13:52:59.519Z,39.08
2022-08-02T13:55:27.038Z,38.37
2022-08-02T13:57:54.602Z,38.45
2022-08-02T14:00:34.274Z,39.07
2022-08-02T14:03:05.846Z,38.93
2022-08-02T14:05:38.094Z,39.55
2022-08-02T14:08:16.820Z,39.80
2022-08-02T14:10:46.375Z,40.83
2022-08-02T14:13:13.885Z,40.95
2022-08-02T14:15:44.778Z,41.50
2022-08-02T14:18:12.607Z,40.96
2022-08-02T14:20:40.097Z,41.16
2022-08-02T14:23:08.428Z,41.25
2022-08-02T14:25:35.854Z,40.78
2022-08-02T14:28:04.986Z,40.76
2022-08-02T14:30:32.477Z,40.83
2022-08-02T14:33:00.913Z,40.99
2022-08-02T14:35:28.529Z,41.13
2022-08-02T14:37:55.871Z,40.70
2022-08-02T14:40:30.918Z,40.38
2022-08-02T14:43:02.928Z,40.88
2022-08-02T14:45:40.072Z,40.82
2022-08-02T14:48:12.094Z,40.61
2022-08-02T14:50:39.906Z,40.40
2022-08-02T14:53:12.341Z,39.52
2022-08-02T14:55:41.182Z,39.85
2022-08-02T14:58:08.817Z,40.57
2022-08-02T15:00:40.612Z,40.01
2022-08-02T15:03:09.846Z,40.06
2022-08-02T15:05:38.099Z,39.92
2022-08-02T15:08:06.163Z,40.16
2022-08-02T15:10:33.446Z,40.26
2022-08-02T15:13:00.939Z,39.76
2022-08-02T15:15:29.087Z,39.52
2022-08-02T15:17:57.010Z,39.82
2022-08-02T15:20:26.301Z,39.21
2022-08-02T15:22:54.050Z,38.79
2022-08-02T15:25:22.146Z,38.61
2022-08-02T15:27:49.632Z,38.93
2022-08-02T15:30:17.185Z,39.32
2022-08-02T15:32:53.221Z,39.38
2022-08-02T15:35:21.648Z,39.86
2022-08-02T15:37:49.458Z,40.53
2022-08-02T15:40:17.083Z,40.64
2022-08-02T15:42:44.644Z,40.55
2022-08-02T15:45:13.175Z,40.90
2022-08-02T15:47:47.852Z,41.17
2022-08-02T15:50:19.136Z,41.22
2022-08-02T15:52:46.596Z,41.94
2022-08-02T15:55:15.356Z,42.24
2022-08-02T15:57:43.262Z,42.51
2022-08-02T16:00:14.177Z,42.39
2022-08-02T16:02:47.083Z,41.49
2022-08-02T16:05:18.245Z,42.42
2022-08-02T16:07:46.224Z,42.49
2022-08-02T16:10:15.161Z,42.34
2022-08-02T16:12:42.987Z,42.71
2022-08-02T16:15:10.346Z,42.49
2022-08-02T16:17:53.572Z,42.75
2022-08-02T16:20:22.620Z,42.38
2022-08-02T16:22:50.456Z,42.94
2022-08-02T16:25:18.002Z,43.01
2022-08-02T16:28:05.977Z,43.00
2022-08-02T16:30:32.886Z,42.57
2022-08-02T16:33:00.690Z,42.65
2022-08-02T16:35:29.160Z,43.01
2022-08-02T16:37:56.776Z,42.92
2022-08-02T16:40:27.046Z,43.88
2022-08-02T16:42:54.663Z,43.40
2022-08-02T16:45:22.645Z,43.21
2022-08-02T16:47:56.592Z,42.62
2022-08-02T16:50:29.143Z,42.88
2022-08-02T16:52:58.549Z,42.52
2022-08-02T16:58:14.831Z,43.34
2022-08-02T17:00:46.571Z,43.16
2022-08-02T17:03:14.112Z,43.08
2022-08-02T17:05:56.592Z,43.27
2022-08-02T17:08:31.909Z,43.69
2022-08-02T17:11:17.476Z,43.85
2022-08-02T17:13:45.320Z,43.60
2022-08-02T17:16:25.980Z,43.94
2022-08-02T17:18:55.510Z,44.08
2022-08-02T17:21:23.122Z,44.28
2022-08-02T17:24:05.166Z,44.16
2022-08-02T17:26:37.217Z,44.92
2022-08-02T17:29:16.233Z,44.91
2022-08-02T17:32:05.449Z,45.68
2022-08-02T17:34:35.993Z,46.23
2022-08-02T17:37:05.880Z,46.57
2022-08-02T17:39:44.504Z,47.21
2022-08-02T17:42:20.217Z,47.57
2022-08-02T17:45:00.896Z,48.27
2022-08-02T17:47:42.347Z,48.76
2022-08-02T17:50:12.570Z,49.71
2022-08-02T17:52:50.592Z,50.10
2022-08-02T17:55:20.771Z,51.15
2022-08-02T17:57:57.769Z,51.29
2022-08-02T18:00:31.014Z,51.97
2022-08-02T18:02:58.221Z,51.68
2022-08-02T18:05:39.329Z,51.87
2022-08-02T18:08:09.558Z,52.21
2022-08-02T18:10:37.460Z,52.40
2022-08-02T18:13:05.393Z,52.95
2022-08-02T18:15:33.178Z,53.08
2022-08-02T18:18:00.936Z,53.65
2022-08-02T18:20:28.212Z,54.01
2022-08-02T18:22:58.494Z,54.18
2022-08-02T18:25:36.836Z,54.96
2022-08-02T18:28:11.902Z,55.89
2022-08-02T18:30:39.239Z,56.13
2022-08-02T18:33:54.946Z,56.49
2022-08-02T18:35:55.163Z,56.87
2022-08-02T18:38:26.920Z,57.08
2022-08-02T18:40:55.670Z,57.56
2022-08-02T18:43:25.469Z,57.82
2022-08-02T18:46:06.874Z,58.57
2022-08-02T18:48:46.490Z,59.03
2022-08-02T18:51:15.935Z,59.07
2022-08-02T18:53:43.552Z,59.50
2022-08-02T18:56:19.629Z,59.67
2022-08-02T18:58:48.818Z,60.03
2022-08-02T19:01:32.282Z,60.75
2022-08-02T19:04:03.143Z,61.00
2022-08-02T19:06:30.890Z,61.76
2022-08-02T19:08:59.702Z,62.41
2022-08-02T19:11:37.927Z,62.94
2022-08-02T19:14:05.336Z,62.89
2022-08-02T19:16:36.703Z,63.00
2022-08-02T19:19:05.078Z,63.17
2022-08-02T19:22:17.525Z,63.06
2022-08-02T19:24:19.734Z,63.71
2022-08-02T19:26:51.692Z,63.90
2022-08-02T19:29:43.338Z,64.51
2022-08-02T19:32:39.208Z,64.05
2022-08-02T19:34:56.283Z,64.53
2022-08-02T19:37:24.175Z,64.61
2022-08-02T19:39:52.385Z,64.69
2022-08-02T19:42:20.834Z,64.73
2022-08-02T19:44:48.827Z,65.14
2022-08-02T19:47:19.161Z,64.91
2022-08-02T19:49:48.725Z,65.29
2022-08-02T19:55:58.418Z,66.21
2022-08-02T19:57:55.373Z,66.71
2022-08-02T20:00:26.901Z,66.63
2022-08-02T20:02:54.565Z,66.87
2022-08-02T20:05:26.550Z,66.92
2022-08-02T20:07:56.423Z,67.68
2022-08-02T20:10:24.980Z,67.90
2022-08-02T20:12:54.374Z,68.40
2022-08-02T20:15:22.056Z,68.63
2022-08-02T20:17:49.403Z,68.95
2022-08-02T20:20:17.537Z,69.93
2022-08-02T20:23:32.711Z,70.45
2022-08-02T20:25:54.053Z,71.17
2022-08-02T20:28:22.282Z,71.37
2022-08-02T20:30:50.023Z,70.78
2022-08-02T20:33:21.994Z,71.31
2022-08-02T20:35:53.256Z,72.00
2022-08-02T20:38:24.782Z,72.12
2022-08-02T20:40:55.619Z,72.22
2022-08-02T20:43:23.249Z,72.13
2022-08-02T20:46:00.522Z,72.47
2022-08-02T20:48:30.392Z,73.12
2022-08-02T20:50:58.503Z,72.60
2022-08-02T20:53:29.986Z,71.86
2022-08-02T20:55:57.494Z,72.41
2022-08-02T20:58:27.246Z,71.37
2022-08-02T21:00:59.175Z,71.62
2022-08-02T21:03:39.515Z,71.79
2022-08-02T21:06:14.947Z,71.41
2022-08-02T21:08:46.109Z,71.26
2022-08-02T21:11:14.183Z,71.36
2022-08-02T21:13:46.799Z,71.35
2022-08-02T21:16:29.097Z,71.51
2022-08-02T21:18:59.781Z,71.62
2022-08-02T21:21:29.810Z,71.67
2022-08-02T21:23:58.839Z,72.01
2022-08-02T21:26:30.338Z,72.24
2022-08-02T21:29:00.775Z,73.33
2022-08-02T21:31:33.532Z,73.59
2022-08-02T21:34:07.539Z,73.91
2022-08-02T21:36:50.502Z,74.45
2022-08-02T21:39:18.222Z,74.46
2022-08-02T21:41:47.018Z,74.67
2022-08-02T21:44:19.640Z,74.84
2022-08-02T21:46:49.341Z,74.56
2022-08-02T21:49:27.055Z,75.21
2022-08-02T21:52:09.089Z,74.63
2022-08-02T21:54:39.810Z,73.98
2022-08-02T21:57:15.144Z,73.40
2022-08-02T21:59:45.313Z,73.81
2022-08-02T22:02:13.812Z,73.65
2022-08-02T22:04:47.809Z,73.48
2022-08-02T22:07:23.618Z,74.20
2022-08-02T22:09:52.617Z,74.36
2022-08-02T22:12:20.889Z,73.83
2022-08-02T22:17:51.750Z,74.44
2022-08-02T22:20:21.830Z,74.98
2022-08-02T22:22:52.052Z,74.82
2022-08-02T22:25:27.080Z,74.65
2022-08-02T22:28:39.130Z,74.99
2022-08-02T22:30:54.439Z,75.79
2022-08-02T22:33:42.567Z,75.85
2022-08-02T22:36:29.225Z,75.78
2022-08-02T22:38:56.825Z,76.42
2022-08-02T22:41:24.160Z,76.74
2022-08-02T22:43:51.469Z,76.75
2022-08-02T22:46:19.042Z,77.11
2022-08-02T22:48:54.243Z,77.86
2022-08-02T22:51:21.697Z,78.41
2022-08-02T22:53:48.780Z,78.08
2022-08-02T22:56:16.623Z,78.16
2022-08-02T22:58:49.365Z,42.75
2022-08-02T22:58:53.554Z,65.66
2022-08-02T23:01:31.427Z,78.78
2022-08-02T23:03:58.840Z,78.68
2022-08-02T23:06:25.933Z,78.81
2022-08-02T23:08:53.090Z,78.85
2022-08-02T23:11:20.307Z,79.14
2022-08-02T23:13:47.462Z,79.57
2022-08-02T23:16:37.674Z,79.71
2022-08-02T23:19:24.286Z,79.40
2022-08-02T23:22:02.591Z,79.95
2022-08-02T23:24:33.635Z,80.90
2022-08-02T23:27:01.536Z,81.99
2022-08-02T23:29:28.654Z,82.60
2022-08-02T23:31:55.817Z,83.24
2022-08-02T23:34:23.133Z,82.99
2022-08-02T23:36:50.315Z,83.10
2022-08-02T23:39:17.501Z,82.85
2022-08-02T23:41:44.754Z,82.55
2022-08-02T23:44:16.421Z,82.31
2022-08-02T23:46:47.497Z,81.91
2022-08-02T23:49:16.817Z,81.57
2022-08-02T23:51:44.552Z,81.30
2022-08-02T23:54:12.342Z,81.29
2022-08-02T23:56:41.038Z,81.96
2022-08-02T23:59:09.016Z,81.79
